sensor_id;sensor_type;location;lat;lon;timestamp;pressure;altitude;pressure_sealevel;temperature;humidity
48796;BME280;34607;48.520;-1.330;2023-05-03T07:10:53;100747.69;;;13.44;80.74
48796;BME280;34607;48.520;-1.330;2023-05-03T07:13:20;100749.44;;;13.48;79.76
48796;BME280;34607;48.520;-1.330;2023-05-03T07:15:48;100747.00;;;13.63;79.96
48796;BME280;34607;48.520;-1.330;2023-05-03T07:18:15;100748.91;;;13.78;79.59
48796;BME280;34607;48.520;-1.330;2023-05-03T07:20:42;100742.97;;;13.93;79.17
48796;BME280;34607;48.520;-1.330;2023-05-03T07:23:09;100741.31;;;14.03;78.56
48796;BME280;34607;48.520;-1.330;2023-05-03T07:25:36;100756.91;;;13.98;78.04
48796;BME280;34607;48.520;-1.330;2023-05-03T07:28:05;100741.41;;;14.12;77.78
48796;BME280;34607;48.520;-1.330;2023-05-03T07:30:32;100743.22;;;14.26;77.40
48796;BME280;34607;48.520;-1.330;2023-05-03T07:32:59;100740.69;;;14.33;76.93
48796;BME280;34607;48.520;-1.330;2023-05-03T07:35:26;100742.47;;;14.43;76.79
48796;BME280;34607;48.520;-1.330;2023-05-03T07:37:53;100738.16;;;14.46;76.05
48796;BME280;34607;48.520;-1.330;2023-05-03T07:40:21;100731.34;;;14.60;76.36
48796;BME280;34607;48.520;-1.330;2023-05-03T07:42:48;100720.94;;;14.66;75.50
48796;BME280;34607;48.520;-1.330;2023-05-03T07:45:17;100726.22;;;14.75;74.97
48796;BME280;34607;48.520;-1.330;2023-05-03T07:47:45;100722.78;;;14.84;74.98
48796;BME280;34607;48.520;-1.330;2023-05-03T07:50:12;100715.06;;;15.10;75.03
48796;BME280;34607;48.520;-1.330;2023-05-03T07:52:39;100721.22;;;15.31;74.58
48796;BME280;34607;48.520;-1.330;2023-05-03T07:55:08;100719.50;;;15.39;73.85
48796;BME280;34607;48.520;-1.330;2023-05-03T07:57:35;100719.53;;;15.54;73.63
48796;BME280;34607;48.520;-1.330;2023-05-03T08:00:03;100710.81;;;15.55;72.89
48796;BME280;34607;48.520;-1.330;2023-05-03T08:02:39;100705.63;;;15.72;71.93
48796;BME280;34607;48.520;-1.330;2023-05-03T08:05:07;100714.38;;;15.82;72.49
48796;BME280;34607;48.520;-1.330;2023-05-03T08:07:34;100705.66;;;15.89;72.01
48796;BME280;34607;48.520;-1.330;2023-05-03T08:10:01;100693.47;;;16.10;71.68
48796;BME280;34607;48.520;-1.330;2023-05-03T08:12:28;100681.25;;;16.24;71.40
48796;BME280;34607;48.520;-1.330;2023-05-03T08:14:56;100696.88;;;16.43;71.14
48796;BME280;34607;48.520;-1.330;2023-05-03T08:17:23;100684.69;;;16.48;70.82
48796;BME280;34607;48.520;-1.330;2023-05-03T08:19:54;100687.28;;;16.54;69.50
48796;BME280;34607;48.520;-1.330;2023-05-03T08:22:21;100696.84;;;16.57;69.38
48796;BME280;34607;48.520;-1.330;2023-05-03T08:24:49;100680.28;;;16.62;68.76
48796;BME280;34607;48.520;-1.330;2023-05-03T08:27:18;100681.16;;;16.67;69.10
48796;BME280;34607;48.520;-1.330;2023-05-03T08:29:45;100667.19;;;16.69;68.51
48796;BME280;34607;48.520;-1.330;2023-05-03T08:32:12;100675.78;;;17.01;68.83
48796;BME280;34607;48.520;-1.330;2023-05-03T08:34:39;100670.53;;;17.12;67.70
48796;BME280;34607;48.520;-1.330;2023-05-03T08:37:08;100674.81;;;17.21;67.76
48796;BME280;34607;48.520;-1.330;2023-05-03T08:39:35;100667.75;;;17.35;67.67
48796;BME280;34607;48.520;-1.330;2023-05-03T08:42:05;100660.50;;;17.70;67.30
48796;BME280;34607;48.520;-1.330;2023-05-03T08:44:35;100655.38;;;17.59;66.80
48796;BME280;34607;48.520;-1.330;2023-05-03T08:47:04;100634.50;;;17.51;66.14
48796;BME280;34607;48.520;-1.330;2023-05-03T08:49:32;100651.94;;;17.52;65.88
48796;BME280;34607;48.520;-1.330;2023-05-03T08:51:59;100646.47;;;17.78;66.02
48796;BME280;34607;48.520;-1.330;2023-05-03T08:54:29;100643.69;;;18.00;65.80
48796;BME280;34607;48.520;-1.330;2023-05-03T08:56:56;100643.25;;;18.43;65.43
48796;BME280;34607;48.520;-1.330;2023-05-03T08:59:23;100646.03;;;18.29;64.57
48796;BME280;34607;48.520;-1.330;2023-05-03T09:01:51;100645.19;;;18.26;65.09
48796;BME280;34607;48.520;-1.330;2023-05-03T09:04:19;100635.31;;;18.49;64.40
48796;BME280;34607;48.520;-1.330;2023-05-03T09:06:46;100628.78;;;18.81;64.76
48796;BME280;34607;48.520;-1.330;2023-05-03T09:09:13;100630.50;;;18.88;63.06
48796;BME280;34607;48.520;-1.330;2023-05-03T09:11:43;100640.88;;;18.95;63.21
48796;BME280;34607;48.520;-1.330;2023-05-03T09:14:11;100607.94;;;18.72;62.71
48796;BME280;34607;48.520;-1.330;2023-05-03T09:16:40;100619.78;;;19.04;62.19
48796;BME280;34607;48.520;-1.330;2023-05-03T09:19:09;100632.38;;;19.38;61.23
48796;BME280;34607;48.520;-1.330;2023-05-03T09:21:37;100618.47;;;19.31;60.65
48796;BME280;34607;48.520;-1.330;2023-05-03T09:24:11;100624.84;;;19.18;60.04
48796;BME280;34607;48.520;-1.330;2023-05-03T09:26:40;100596.06;;;19.10;60.65
48796;BME280;34607;48.520;-1.330;2023-05-03T09:29:08;100613.41;;;19.20;60.32
48796;BME280;34607;48.520;-1.330;2023-05-03T09:31:36;100614.22;;;19.24;60.02
48796;BME280;34607;48.520;-1.330;2023-05-03T09:34:20;100618.38;;;19.39;60.18
48796;BME280;34607;48.520;-1.330;2023-05-03T09:36:47;100617.00;;;19.69;59.20
48796;BME280;34607;48.520;-1.330;2023-05-03T09:39:17;100619.28;;;19.91;60.54
48796;BME280;34607;48.520;-1.330;2023-05-03T09:41:45;100608.91;;;19.85;59.85
48796;BME280;34607;48.520;-1.330;2023-05-03T09:44:13;100603.94;;;20.16;59.62
48796;BME280;34607;48.520;-1.330;2023-05-03T09:47:01;100620.00;;;19.99;56.83
48796;BME280;34607;48.520;-1.330;2023-05-03T09:49:29;100609.59;;;19.93;58.44
48796;BME280;34607;48.520;-1.330;2023-05-03T09:51:57;100612.56;;;19.76;58.37
48796;BME280;34607;48.520;-1.330;2023-05-03T09:54:24;100609.00;;;19.78;57.80
48796;BME280;34607;48.520;-1.330;2023-05-03T09:56:53;100601.13;;;19.77;58.13
48796;BME280;34607;48.520;-1.330;2023-05-03T09:59:23;100615.63;;;19.99;57.55
48796;BME280;34607;48.520;-1.330;2023-05-03T10:01:52;100605.09;;;19.99;57.99
48796;BME280;34607;48.520;-1.330;2023-05-03T10:04:24;100612.25;;;20.38;57.13
48796;BME280;34607;48.520;-1.330;2023-05-03T10:06:53;100593.59;;;20.07;56.89
48796;BME280;34607;48.520;-1.330;2023-05-03T10:09:30;100594.13;;;20.24;56.85
48796;BME280;34607;48.520;-1.330;2023-05-03T10:11:59;100596.56;;;20.33;57.00
48796;BME280;34607;48.520;-1.330;2023-05-03T10:14:29;100585.88;;;20.43;56.58
48796;BME280;34607;48.520;-1.330;2023-05-03T10:16:59;100590.06;;;20.51;56.82
48796;BME280;34607;48.520;-1.330;2023-05-03T10:19:30;100559.06;;;20.67;56.80
48796;BME280;34607;48.520;-1.330;2023-05-03T10:22:03;100580.75;;;20.79;56.80
48796;BME280;34607;48.520;-1.330;2023-05-03T10:24:31;100574.94;;;21.02;55.88
48796;BME280;34607;48.520;-1.330;2023-05-03T10:26:58;100525.50;;;20.79;56.37
48796;BME280;34607;48.520;-1.330;2023-05-03T10:29:45;100574.09;;;21.01;56.32
48796;BME280;34607;48.520;-1.330;2023-05-03T10:32:30;100568.16;;;21.29;54.77
48796;BME280;34607;48.520;-1.330;2023-05-03T10:35:00;100558.88;;;21.50;55.71
48796;BME280;34607;48.520;-1.330;2023-05-03T10:37:28;100566.94;;;21.44;55.99
48796;BME280;34607;48.520;-1.330;2023-05-03T10:40:04;100571.94;;;21.55;54.85
48796;BME280;34607;48.520;-1.330;2023-05-03T10:42:31;100555.88;;;21.28;56.44
48796;BME280;34607;48.520;-1.330;2023-05-03T10:45:00;100563.75;;;21.65;56.94
48796;BME280;34607;48.520;-1.330;2023-05-03T10:47:28;100540.75;;;22.03;55.83
48796;BME280;34607;48.520;-1.330;2023-05-03T10:50:24;100551.03;;;22.14;54.64
48796;BME280;34607;48.520;-1.330;2023-05-03T10:52:51;100544.44;;;21.98;55.36
48796;BME280;34607;48.520;-1.330;2023-05-03T10:55:20;100540.66;;;21.75;54.90
48796;BME280;34607;48.520;-1.330;2023-05-03T10:57:52;100547.00;;;21.68;54.73
48796;BME280;34607;48.520;-1.330;2023-05-03T11:00:26;100530.03;;;21.44;54.42
48796;BME280;34607;48.520;-1.330;2023-05-03T11:03:17;100537.69;;;21.55;54.09
48796;BME280;34607;48.520;-1.330;2023-05-03T11:05:51;100521.13;;;21.82;55.59
48796;BME280;34607;48.520;-1.330;2023-05-03T11:08:19;100522.28;;;22.03;55.15
48796;BME280;34607;48.520;-1.330;2023-05-03T11:10:48;100521.84;;;22.19;54.11
48796;BME280;34607;48.520;-1.330;2023-05-03T11:13:15;100526.34;;;22.15;54.35
48796;BME280;34607;48.520;-1.330;2023-05-03T11:15:44;100518.75;;;21.73;53.53
48796;BME280;34607;48.520;-1.330;2023-05-03T11:18:11;100521.97;;;22.16;54.13
48796;BME280;34607;48.520;-1.330;2023-05-03T11:20:38;100517.25;;;21.96;53.47
48796;BME280;34607;48.520;-1.330;2023-05-03T11:23:06;100508.41;;;22.30;53.58
48796;BME280;34607;48.520;-1.330;2023-05-03T11:25:33;100514.50;;;22.60;53.70
48796;BME280;34607;48.520;-1.330;2023-05-03T11:28:00;100505.72;;;22.59;52.65
48796;BME280;34607;48.520;-1.330;2023-05-03T11:30:28;100501.72;;;22.46;52.37
48796;BME280;34607;48.520;-1.330;2023-05-03T11:32:58;100495.16;;;22.31;52.85
48796;BME280;34607;48.520;-1.330;2023-05-03T11:35:27;100491.91;;;22.21;53.18
48796;BME280;34607;48.520;-1.330;2023-05-03T11:37:55;100483.72;;;22.31;52.98
48796;BME280;34607;48.520;-1.330;2023-05-03T11:40:23;100483.91;;;22.54;52.68
48796;BME280;34607;48.520;-1.330;2023-05-03T11:42:51;100482.72;;;22.91;53.97
48796;BME280;34607;48.520;-1.330;2023-05-03T11:45:20;100483.53;;;22.93;53.33
48796;BME280;34607;48.520;-1.330;2023-05-03T11:47:48;100483.59;;;22.92;52.84
48796;BME280;34607;48.520;-1.330;2023-05-03T11:50:17;100478.53;;;23.12;52.57
48796;BME280;34607;48.520;-1.330;2023-05-03T11:52:44;100477.63;;;22.85;52.53
48796;BME280;34607;48.520;-1.330;2023-05-03T11:55:12;100458.31;;;22.85;52.81
48796;BME280;34607;48.520;-1.330;2023-05-03T11:57:40;100465.25;;;22.87;53.40
48796;BME280;34607;48.520;-1.330;2023-05-03T12:00:10;100453.50;;;22.96;53.56
48796;BME280;34607;48.520;-1.330;2023-05-03T12:02:39;100442.00;;;22.98;53.05
48796;BME280;34607;48.520;-1.330;2023-05-03T12:05:07;100463.31;;;22.92;53.45
48796;BME280;34607;48.520;-1.330;2023-05-03T12:07:37;100460.19;;;22.81;52.86
48796;BME280;34607;48.520;-1.330;2023-05-03T12:10:14;100462.91;;;22.78;52.52
48796;BME280;34607;48.520;-1.330;2023-05-03T12:12:56;100436.16;;;22.89;51.48
48796;BME280;34607;48.520;-1.330;2023-05-03T12:15:31;100442.16;;;23.21;51.84
48796;BME280;34607;48.520;-1.330;2023-05-03T12:18:00;100453.91;;;23.37;50.91
48796;BME280;34607;48.520;-1.330;2023-05-03T12:20:28;100451.53;;;23.29;51.19
48796;BME280;34607;48.520;-1.330;2023-05-03T12:22:59;100444.38;;;23.58;51.24
48796;BME280;34607;48.520;-1.330;2023-05-03T12:25:27;100428.88;;;23.47;51.55
48796;BME280;34607;48.520;-1.330;2023-05-03T12:27:58;100436.59;;;23.28;51.75
48796;BME280;34607;48.520;-1.330;2023-05-03T12:30:27;100431.50;;;23.24;52.48
48796;BME280;34607;48.520;-1.330;2023-05-03T12:32:54;100434.28;;;23.44;51.72
48796;BME280;34607;48.520;-1.330;2023-05-03T12:35:22;100421.78;;;23.24;52.12
48796;BME280;34607;48.520;-1.330;2023-05-03T12:37:50;100419.69;;;23.34;51.49
48796;BME280;34607;48.520;-1.330;2023-05-03T12:40:18;100406.47;;;23.09;51.89
48796;BME280;34607;48.520;-1.330;2023-05-03T12:42:45;100406.72;;;22.99;50.98
48796;BME280;34607;48.520;-1.330;2023-05-03T12:45:12;100395.75;;;23.13;51.32
48796;BME280;34607;48.520;-1.330;2023-05-03T12:47:40;100407.63;;;23.25;50.02
48796;BME280;34607;48.520;-1.330;2023-05-03T12:50:08;100396.50;;;22.90;50.37
48796;BME280;34607;48.520;-1.330;2023-05-03T12:52:36;100390.41;;;22.88;49.37
48796;BME280;34607;48.520;-1.330;2023-05-03T12:55:03;100394.47;;;22.98;49.09
48796;BME280;34607;48.520;-1.330;2023-05-03T12:57:32;100393.97;;;23.14;49.46
48796;BME280;34607;48.520;-1.330;2023-05-03T12:59:59;100367.31;;;23.20;50.32
48796;BME280;34607;48.520;-1.330;2023-05-03T13:02:26;100385.16;;;23.62;50.34
48796;BME280;34607;48.520;-1.330;2023-05-03T13:04:54;100379.19;;;23.57;50.52
48796;BME280;34607;48.520;-1.330;2023-05-03T13:07:21;100379.28;;;23.54;51.01
48796;BME280;34607;48.520;-1.330;2023-05-03T13:09:49;100363.63;;;23.49;50.45
48796;BME280;34607;48.520;-1.330;2023-05-03T13:12:17;100359.50;;;23.41;50.04
48796;BME280;34607;48.520;-1.330;2023-05-03T13:14:48;100350.84;;;23.37;49.26
48796;BME280;34607;48.520;-1.330;2023-05-03T13:17:16;100359.47;;;22.92;50.12
48796;BME280;34607;48.520;-1.330;2023-05-03T13:19:45;100363.09;;;23.14;50.80
48796;BME280;34607;48.520;-1.330;2023-05-03T13:22:13;100341.44;;;23.53;50.75
48796;BME280;34607;48.520;-1.330;2023-05-03T13:24:41;100351.78;;;23.60;50.62
48796;BME280;34607;48.520;-1.330;2023-05-03T13:27:08;100344.13;;;23.52;51.03
48796;BME280;34607;48.520;-1.330;2023-05-03T13:29:36;100345.28;;;23.45;51.53
48796;BME280;34607;48.520;-1.330;2023-05-03T13:32:05;100347.81;;;23.24;50.88
48796;BME280;34607;48.520;-1.330;2023-05-03T13:34:32;100339.06;;;22.70;51.21
48796;BME280;34607;48.520;-1.330;2023-05-03T13:37:00;100323.84;;;23.04;51.62
48796;BME280;34607;48.520;-1.330;2023-05-03T13:39:28;100322.69;;;22.86;51.11
48796;BME280;34607;48.520;-1.330;2023-05-03T13:41:55;100343.59;;;22.67;51.20
48796;BME280;34607;48.520;-1.330;2023-05-03T13:44:22;100338.53;;;22.60;51.84
48796;BME280;34607;48.520;-1.330;2023-05-03T13:46:50;100331.19;;;22.43;52.12
48796;BME280;34607;48.520;-1.330;2023-05-03T13:49:19;100328.66;;;22.67;51.87
48796;BME280;34607;48.520;-1.330;2023-05-03T13:51:46;100306.53;;;22.70;52.38
48796;BME280;34607;48.520;-1.330;2023-05-03T13:54:13;100317.06;;;22.96;52.14
48796;BME280;34607;48.520;-1.330;2023-05-03T13:56:40;100312.97;;;23.13;52.29
48796;BME280;34607;48.520;-1.330;2023-05-03T13:59:07;100324.22;;;22.68;52.54
48796;BME280;34607;48.520;-1.330;2023-05-03T14:01:35;100315.66;;;22.61;52.67
48796;BME280;34607;48.520;-1.330;2023-05-03T14:04:02;100330.25;;;22.71;52.31
48796;BME280;34607;48.520;-1.330;2023-05-03T14:06:31;100317.81;;;22.75;52.37
48796;BME280;34607;48.520;-1.330;2023-05-03T14:08:58;100309.00;;;22.76;52.18
48796;BME280;34607;48.520;-1.330;2023-05-03T14:11:26;100318.72;;;22.99;52.13
48796;BME280;34607;48.520;-1.330;2023-05-03T14:13:53;100308.22;;;22.97;51.96
48796;BME280;34607;48.520;-1.330;2023-05-03T14:16:21;100285.13;;;23.28;51.73
48796;BME280;34607;48.520;-1.330;2023-05-03T14:18:50;100259.06;;;23.18;52.12
48796;BME280;34607;48.520;-1.330;2023-05-03T14:21:18;100282.53;;;23.26;51.42
48796;BME280;34607;48.520;-1.330;2023-05-03T14:23:47;100297.69;;;22.96;51.24
48796;BME280;34607;48.520;-1.330;2023-05-03T14:26:14;100291.75;;;22.66;51.99
48796;BME280;34607;48.520;-1.330;2023-05-03T14:28:42;100261.41;;;22.52;51.74
48796;BME280;34607;48.520;-1.330;2023-05-03T14:31:09;100275.94;;;22.39;52.24
48796;BME280;34607;48.520;-1.330;2023-05-03T14:33:36;100280.34;;;22.38;51.96
48796;BME280;34607;48.520;-1.330;2023-05-03T14:36:05;100257.34;;;22.15;51.93
48796;BME280;34607;48.520;-1.330;2023-05-03T14:38:33;100266.41;;;22.35;52.34
48796;BME280;34607;48.520;-1.330;2023-05-03T14:41:01;100256.31;;;22.46;52.04
48796;BME280;34607;48.520;-1.330;2023-05-03T14:43:28;100253.34;;;22.57;51.67
48796;BME280;34607;48.520;-1.330;2023-05-03T14:45:55;100248.97;;;22.56;51.45
48796;BME280;34607;48.520;-1.330;2023-05-03T14:48:22;100242.22;;;22.47;51.58
48796;BME280;34607;48.520;-1.330;2023-05-03T14:50:50;100244.50;;;22.58;51.56
48796;BME280;34607;48.520;-1.330;2023-05-03T14:53:17;100218.44;;;22.49;52.51
48796;BME280;34607;48.520;-1.330;2023-05-03T14:55:44;100253.59;;;22.49;52.35
48796;BME280;34607;48.520;-1.330;2023-05-03T14:58:13;100245.41;;;22.32;52.23
48796;BME280;34607;48.520;-1.330;2023-05-03T15:00:40;100236.13;;;22.18;52.73
48796;BME280;34607;48.520;-1.330;2023-05-03T15:03:08;100212.63;;;21.85;53.08
48796;BME280;34607;48.520;-1.330;2023-05-03T15:05:43;100243.44;;;21.83;52.97
48796;BME280;34607;48.520;-1.330;2023-05-03T15:08:13;100222.72;;;21.71;53.32
48796;BME280;34607;48.520;-1.330;2023-05-03T15:10:41;100236.44;;;21.82;53.04
48796;BME280;34607;48.520;-1.330;2023-05-03T15:13:09;100220.53;;;21.85;52.99
48796;BME280;34607;48.520;-1.330;2023-05-03T15:15:37;100185.53;;;21.80;53.21
48796;BME280;34607;48.520;-1.330;2023-05-03T15:18:06;100212.06;;;22.02;53.12
48796;BME280;34607;48.520;-1.330;2023-05-03T15:20:33;100191.56;;;21.84;53.11
48796;BME280;34607;48.520;-1.330;2023-05-03T15:23:01;100206.22;;;21.93;53.89
48796;BME280;34607;48.520;-1.330;2023-05-03T15:25:29;100198.88;;;22.02;53.35
48796;BME280;34607;48.520;-1.330;2023-05-03T15:27:56;100196.44;;;22.23;53.02
48796;BME280;34607;48.520;-1.330;2023-05-03T15:30:23;100187.53;;;22.25;53.34
48796;BME280;34607;48.520;-1.330;2023-05-03T15:32:51;100187.41;;;22.30;53.73
48796;BME280;34607;48.520;-1.330;2023-05-03T15:35:19;100189.63;;;22.42;53.23
48796;BME280;34607;48.520;-1.330;2023-05-03T15:37:46;100188.16;;;22.34;53.57
48796;BME280;34607;48.520;-1.330;2023-05-03T15:40:13;100172.47;;;22.29;53.70
48796;BME280;34607;48.520;-1.330;2023-05-03T15:42:40;100164.81;;;22.21;53.53
48796;BME280;34607;48.520;-1.330;2023-05-03T15:45:07;100180.53;;;22.24;53.69
48796;BME280;34607;48.520;-1.330;2023-05-03T15:47:35;100172.69;;;22.23;53.46
48796;BME280;34607;48.520;-1.330;2023-05-03T15:50:04;100172.19;;;22.12;53.49
48796;BME280;34607;48.520;-1.330;2023-05-03T15:52:31;100169.31;;;21.93;53.60
48796;BME280;34607;48.520;-1.330;2023-05-03T15:54:59;100181.59;;;21.94;54.37
48796;BME280;34607;48.520;-1.330;2023-05-03T15:57:26;100160.56;;;21.92;54.92
48796;BME280;34607;48.520;-1.330;2023-05-03T15:59:53;100150.66;;;21.99;54.74
48796;BME280;34607;48.520;-1.330;2023-05-03T16:02:20;100143.69;;;21.96;54.97
48796;BME280;34607;48.520;-1.330;2023-05-03T16:04:47;100134.00;;;21.97;55.63
48796;BME280;34607;48.520;-1.330;2023-05-03T16:07:16;100136.06;;;21.88;55.47
48796;BME280;34607;48.520;-1.330;2023-05-03T16:09:43;100141.84;;;21.73;55.41
48796;BME280;34607;48.520;-1.330;2023-05-03T16:12:11;100128.88;;;21.67;56.30
48796;BME280;34607;48.520;-1.330;2023-05-03T16:14:38;100130.00;;;21.60;56.66
48796;BME280;34607;48.520;-1.330;2023-05-03T16:17:05;100142.94;;;21.66;57.07
48796;BME280;34607;48.520;-1.330;2023-05-03T16:19:33;100134.53;;;21.55;56.30
48796;BME280;34607;48.520;-1.330;2023-05-03T16:22:02;100123.69;;;21.64;55.90
48796;BME280;34607;48.520;-1.330;2023-05-03T16:24:30;100118.03;;;21.49;56.29
48796;BME280;34607;48.520;-1.330;2023-05-03T16:27:00;100128.72;;;21.43;56.77
48796;BME280;34607;48.520;-1.330;2023-05-03T16:29:28;100134.00;;;21.43;56.87
48796;BME280;34607;48.520;-1.330;2023-05-03T16:31:55;100147.06;;;21.48;56.90
48796;BME280;34607;48.520;-1.330;2023-05-03T16:34:22;100141.94;;;21.42;56.70
48796;BME280;34607;48.520;-1.330;2023-05-03T16:36:49;100119.25;;;21.09;56.99
48796;BME280;34607;48.520;-1.330;2023-05-03T16:39:16;100139.50;;;21.07;56.85
48796;BME280;34607;48.520;-1.330;2023-05-03T16:41:45;100142.91;;;21.11;56.76
48796;BME280;34607;48.520;-1.330;2023-05-03T16:44:12;100140.31;;;21.09;56.37
48796;BME280;34607;48.520;-1.330;2023-05-03T16:46:43;100143.94;;;21.05;56.33
48796;BME280;34607;48.520;-1.330;2023-05-03T16:49:10;100136.97;;;21.04;56.59
48796;BME280;34607;48.520;-1.330;2023-05-03T16:51:37;100149.50;;;20.96;56.98
48796;BME280;34607;48.520;-1.330;2023-05-03T16:54:05;100149.56;;;20.94;57.45
48796;BME280;34607;48.520;-1.330;2023-05-03T16:56:32;100155.66;;;20.95;57.42
48796;BME280;34607;48.520;-1.330;2023-05-03T16:59:00;100154.91;;;20.91;57.96
48796;BME280;34607;48.520;-1.330;2023-05-03T17:01:28;100157.41;;;20.96;57.92
48796;BME280;34607;48.520;-1.330;2023-05-03T17:03:55;100151.50;;;20.88;57.80
48796;BME280;34607;48.520;-1.330;2023-05-03T17:06:22;100149.88;;;20.84;57.65
48796;BME280;34607;48.520;-1.330;2023-05-03T17:08:49;100103.97;;;20.61;57.73
48796;BME280;34607;48.520;-1.330;2023-05-03T17:11:16;100125.75;;;20.68;58.30
48796;BME280;34607;48.520;-1.330;2023-05-03T17:13:43;100131.38;;;20.54;59.03
48796;BME280;34607;48.520;-1.330;2023-05-03T17:16:13;100130.59;;;20.50;59.29
48796;BME280;34607;48.520;-1.330;2023-05-03T17:18:41;100112.50;;;20.39;59.59
48796;BME280;34607;48.520;-1.330;2023-05-03T17:21:08;100107.31;;;20.36;59.50
48796;BME280;34607;48.520;-1.330;2023-05-03T17:23:36;100113.38;;;20.40;60.14
48796;BME280;34607;48.520;-1.330;2023-05-03T17:26:05;100114.47;;;20.31;60.33
48796;BME280;34607;48.520;-1.330;2023-05-03T17:28:34;100110.34;;;20.23;60.07
48796;BME280;34607;48.520;-1.330;2023-05-03T17:31:02;100097.50;;;20.12;60.19
48796;BME280;34607;48.520;-1.330;2023-05-03T17:33:32;100099.91;;;20.19;60.58
48796;BME280;34607;48.520;-1.330;2023-05-03T17:36:02;100097.31;;;20.18;60.22
48796;BME280;34607;48.520;-1.330;2023-05-03T17:38:31;100094.03;;;20.10;60.02
48796;BME280;34607;48.520;-1.330;2023-05-03T17:41:02;100090.81;;;20.00;60.93
48796;BME280;34607;48.520;-1.330;2023-05-03T17:43:29;100090.88;;;19.97;60.78
48796;BME280;34607;48.520;-1.330;2023-05-03T17:46:04;100094.44;;;19.94;61.36
48796;BME280;34607;48.520;-1.330;2023-05-03T17:48:35;100094.69;;;19.85;61.08
48796;BME280;34607;48.520;-1.330;2023-05-03T17:51:02;100100.13;;;19.77;61.20
48796;BME280;34607;48.520;-1.330;2023-05-03T17:53:29;100084.63;;;19.67;61.27
48796;BME280;34607;48.520;-1.330;2023-05-03T17:55:56;100094.19;;;19.69;61.18
48796;BME280;34607;48.520;-1.330;2023-05-03T17:58:23;100092.50;;;19.67;61.11
48796;BME280;34607;48.520;-1.330;2023-05-03T18:00:51;100080.50;;;19.56;60.86
48796;BME280;34607;48.520;-1.330;2023-05-03T18:03:18;100087.50;;;19.57;61.14
48796;BME280;34607;48.520;-1.330;2023-05-03T18:05:46;100097.97;;;19.59;60.95
48796;BME280;34607;48.520;-1.330;2023-05-03T18:08:13;100089.41;;;19.51;61.32
48796;BME280;34607;48.520;-1.330;2023-05-03T18:10:41;100092.97;;;19.46;61.15
48796;BME280;34607;48.520;-1.330;2023-05-03T18:13:09;100098.38;;;19.42;61.30
48796;BME280;34607;48.520;-1.330;2023-05-03T18:15:37;100096.59;;;19.42;61.46
48796;BME280;34607;48.520;-1.330;2023-05-03T18:18:05;100098.44;;;19.39;61.53
48796;BME280;34607;48.520;-1.330;2023-05-03T18:20:32;100093.28;;;19.34;62.19
48796;BME280;34607;48.520;-1.330;2023-05-03T18:23:00;100073.53;;;19.19;61.96
48796;BME280;34607;48.520;-1.330;2023-05-03T18:25:28;100082.28;;;19.18;62.22
48796;BME280;34607;48.520;-1.330;2023-05-03T18:27:55;100101.53;;;19.19;62.30
48796;BME280;34607;48.520;-1.330;2023-05-03T18:30:23;100095.44;;;19.17;62.27
48796;BME280;34607;48.520;-1.330;2023-05-03T18:32:52;100104.31;;;19.13;62.54
48796;BME280;34607;48.520;-1.330;2023-05-03T18:35:20;100114.03;;;19.07;62.61
48796;BME280;34607;48.520;-1.330;2023-05-03T18:37:47;100113.25;;;19.04;62.96
48796;BME280;34607;48.520;-1.330;2023-05-03T18:40:15;100113.25;;;19.04;62.77
48796;BME280;34607;48.520;-1.330;2023-05-03T18:42:43;100122.25;;;18.92;62.72
48796;BME280;34607;48.520;-1.330;2023-05-03T18:45:10;100117.94;;;18.89;63.04
48796;BME280;34607;48.520;-1.330;2023-05-03T18:47:39;100118.94;;;18.84;62.88
48796;BME280;34607;48.520;-1.330;2023-05-03T18:50:07;100111.16;;;18.78;63.08
48796;BME280;34607;48.520;-1.330;2023-05-03T18:52:34;100077.56;;;18.55;63.27
48796;BME280;34607;48.520;-1.330;2023-05-03T18:55:01;100112.16;;;18.72;63.20
48796;BME280;34607;48.520;-1.330;2023-05-03T18:57:30;100110.50;;;18.68;63.95
48796;BME280;34607;48.520;-1.330;2023-05-03T18:59:58;100093.41;;;18.48;63.57
48796;BME280;34607;48.520;-1.330;2023-05-03T19:02:25;100112.41;;;18.60;63.55
48796;BME280;34607;48.520;-1.330;2023-05-03T19:04:55;100095.88;;;18.56;63.21
48796;BME280;34607;48.520;-1.330;2023-05-03T19:07:22;100101.22;;;18.51;63.42
48796;BME280;34607;48.520;-1.330;2023-05-03T19:09:52;100102.19;;;18.47;63.32
48796;BME280;34607;48.520;-1.330;2023-05-03T19:12:19;100097.00;;;18.44;63.86
48796;BME280;34607;48.520;-1.330;2023-05-03T19:14:47;100101.56;;;18.33;63.74
48796;BME280;34607;48.520;-1.330;2023-05-03T19:17:14;100087.69;;;18.28;63.94
48796;BME280;34607;48.520;-1.330;2023-05-03T19:19:41;100088.72;;;18.21;64.08
48796;BME280;34607;48.520;-1.330;2023-05-03T19:22:08;100085.22;;;18.22;64.14
48796;BME280;34607;48.520;-1.330;2023-05-03T19:24:35;100088.75;;;18.19;64.20
48796;BME280;34607;48.520;-1.330;2023-05-03T19:27:04;100071.50;;;18.07;64.82
48796;BME280;34607;48.520;-1.330;2023-05-03T19:29:31;100081.19;;;18.02;64.83
48796;BME280;34607;48.520;-1.330;2023-05-03T19:31:59;100077.78;;;17.97;64.81
48796;BME280;34607;48.520;-1.330;2023-05-03T19:34:26;100090.13;;;17.92;65.00
48796;BME280;34607;48.520;-1.330;2023-05-03T19:36:54;100089.34;;;17.84;65.09
48796;BME280;34607;48.520;-1.330;2023-05-03T19:39:21;100085.94;;;17.78;65.73
48796;BME280;34607;48.520;-1.330;2023-05-03T19:41:48;100090.34;;;17.76;65.79
48796;BME280;34607;48.520;-1.330;2023-05-03T19:44:17;100080.06;;;17.67;65.82
48796;BME280;34607;48.520;-1.330;2023-05-03T19:46:44;100098.22;;;17.75;66.18
48796;BME280;34607;48.520;-1.330;2023-05-03T19:49:13;100099.31;;;17.63;66.44
48796;BME280;34607;48.520;-1.330;2023-05-03T19:51:40;100104.53;;;17.63;66.53
48796;BME280;34607;48.520;-1.330;2023-05-03T19:54:07;100101.97;;;17.62;66.45
48796;BME280;34607;48.520;-1.330;2023-05-03T19:56:34;100092.34;;;17.62;66.23